Terminal Aerodrome Forecast
Issued by NWS

Home | Current Version | Previous Version | Text Only | Print | Product List | Glossary On
Versions: 1 2 3 4 5 6 7 8 9 10 11 12 13 14 15 16 17 18
000
FTUS46 KSEW 231919 AAB
TAFPAE
TAF AMD
KPAE 231919Z 2319/2418 01005KT P6SM SCT030 BKN050
     FM232100 33005KT P6SM FEW035 SCT050
     FM240300 01004KT P6SM SKC
     FM241200 01004KT P6SM SCT006=

USA.gov is the U.S. government's official web portal to all federal, state and local government web resources and services.